sensor_id;sensor_type;location;lat;lon;timestamp;pressure;altitude;pressure_sealevel;temperature;humidity
34506;BME280;20748;42.632;23.198;2024-02-26T00:02:02;91572.25;;;5.41;100.00
34506;BME280;20748;42.632;23.198;2024-02-26T00:04:35;91562.44;;;5.38;100.00
34506;BME280;20748;42.632;23.198;2024-02-26T00:07:09;91555.59;;;5.47;100.00
34506;BME280;20748;42.632;23.198;2024-02-26T00:09:43;91556.66;;;5.22;100.00
34506;BME280;20748;42.632;23.198;2024-02-26T00:12:17;91549.28;;;5.34;100.00
34506;BME280;20748;42.632;23.198;2024-02-26T00:14:50;91560.78;;;5.47;100.00
34506;BME280;20748;42.632;23.198;2024-02-26T00:17:26;91548.63;;;5.48;99.87
34506;BME280;20748;42.632;23.198;2024-02-26T00:20:00;91550.50;;;5.42;100.00
34506;BME280;20748;42.632;23.198;2024-02-26T00:22:37;91546.38;;;5.41;100.00
34506;BME280;20748;42.632;23.198;2024-02-26T00:25:10;91543.78;;;5.41;100.00
34506;BME280;20748;42.632;23.198;2024-02-26T00:27:45;91537.97;;;5.49;100.00
34506;BME280;20748;42.632;23.198;2024-02-26T00:30:18;91539.25;;;5.52;100.00
34506;BME280;20748;42.632;23.198;2024-02-26T00:32:53;91535.38;;;5.49;100.00
34506;BME280;20748;42.632;23.198;2024-02-26T00:35:27;91537.44;;;5.53;100.00
34506;BME280;20748;42.632;23.198;2024-02-26T00:38:01;91541.84;;;5.52;100.00
34506;BME280;20748;42.632;23.198;2024-02-26T00:40:35;91536.81;;;5.61;100.00
34506;BME280;20748;42.632;23.198;2024-02-26T00:43:09;91536.47;;;5.68;100.00
34506;BME280;20748;42.632;23.198;2024-02-26T00:45:43;91526.41;;;5.66;100.00
34506;BME280;20748;42.632;23.198;2024-02-26T00:48:20;91525.69;;;5.60;100.00
34506;BME280;20748;42.632;23.198;2024-02-26T00:50:54;91531.03;;;5.69;100.00
34506;BME280;20748;42.632;23.198;2024-02-26T00:53:27;91525.34;;;5.67;100.00
34506;BME280;20748;42.632;23.198;2024-02-26T00:56:01;91524.09;;;5.64;100.00
34506;BME280;20748;42.632;23.198;2024-02-26T00:58:35;91521.22;;;5.66;100.00
34506;BME280;20748;42.632;23.198;2024-02-26T01:01:09;91516.75;;;5.72;100.00
34506;BME280;20748;42.632;23.198;2024-02-26T01:03:44;91514.38;;;5.75;100.00
34506;BME280;20748;42.632;23.198;2024-02-26T01:06:17;91511.53;;;5.77;100.00
34506;BME280;20748;42.632;23.198;2024-02-26T01:08:51;91508.88;;;5.82;100.00
34506;BME280;20748;42.632;23.198;2024-02-26T01:11:25;91502.06;;;5.86;100.00
34506;BME280;20748;42.632;23.198;2024-02-26T01:13:59;91507.16;;;5.91;100.00
34506;BME280;20748;42.632;23.198;2024-02-26T01:16:33;91508.28;;;5.85;100.00
34506;BME280;20748;42.632;23.198;2024-02-26T01:19:08;91509.75;;;5.91;100.00
34506;BME280;20748;42.632;23.198;2024-02-26T01:21:42;91507.88;;;5.97;100.00
34506;BME280;20748;42.632;23.198;2024-02-26T01:24:15;91484.22;;;5.85;100.00
34506;BME280;20748;42.632;23.198;2024-02-26T01:26:49;91498.66;;;5.91;100.00
34506;BME280;20748;42.632;23.198;2024-02-26T01:29:23;91497.59;;;5.92;100.00
34506;BME280;20748;42.632;23.198;2024-02-26T01:31:56;91491.22;;;5.84;100.00
34506;BME280;20748;42.632;23.198;2024-02-26T01:34:31;91498.13;;;5.89;100.00
34506;BME280;20748;42.632;23.198;2024-02-26T01:37:05;91497.09;;;5.90;100.00
34506;BME280;20748;42.632;23.198;2024-02-26T01:39:39;91502.41;;;5.99;100.00
34506;BME280;20748;42.632;23.198;2024-02-26T01:42:14;91499.59;;;5.95;100.00
34506;BME280;20748;42.632;23.198;2024-02-26T01:44:47;91501.44;;;5.95;100.00
34506;BME280;20748;42.632;23.198;2024-02-26T01:47:21;91495.69;;;5.78;100.00
34506;BME280;20748;42.632;23.198;2024-02-26T01:49:57;91499.75;;;5.85;100.00
34506;BME280;20748;42.632;23.198;2024-02-26T01:52:31;91494.94;;;5.78;100.00
34506;BME280;20748;42.632;23.198;2024-02-26T01:55:06;91490.94;;;5.86;100.00
34506;BME280;20748;42.632;23.198;2024-02-26T01:57:42;91493.09;;;5.98;100.00
34506;BME280;20748;42.632;23.198;2024-02-26T02:00:16;91495.88;;;6.01;100.00
34506;BME280;20748;42.632;23.198;2024-02-26T02:02:52;91492.50;;;6.06;100.00
34506;BME280;20748;42.632;23.198;2024-02-26T02:05:28;91496.81;;;6.11;100.00
34506;BME280;20748;42.632;23.198;2024-02-26T02:08:02;91487.38;;;6.01;100.00
34506;BME280;20748;42.632;23.198;2024-02-26T02:10:38;91492.50;;;6.06;100.00
34506;BME280;20748;42.632;23.198;2024-02-26T02:13:11;91492.13;;;6.13;100.00
34506;BME280;20748;42.632;23.198;2024-02-26T02:15:45;91485.69;;;6.10;100.00
34506;BME280;20748;42.632;23.198;2024-02-26T02:18:19;91486.19;;;5.93;100.00
34506;BME280;20748;42.632;23.198;2024-02-26T02:20:54;91484.44;;;5.88;100.00
34506;BME280;20748;42.632;23.198;2024-02-26T02:23:32;91487.50;;;5.90;100.00
34506;BME280;20748;42.632;23.198;2024-02-26T02:26:05;91493.28;;;6.01;100.00
34506;BME280;20748;42.632;23.198;2024-02-26T02:28:39;91488.28;;;6.10;100.00
34506;BME280;20748;42.632;23.198;2024-02-26T02:31:13;91473.44;;;6.16;100.00
34506;BME280;20748;42.632;23.198;2024-02-26T02:33:48;91479.88;;;6.18;100.00
34506;BME280;20748;42.632;23.198;2024-02-26T02:36:23;91484.22;;;6.23;100.00
34506;BME280;20748;42.632;23.198;2024-02-26T02:38:57;91494.28;;;6.25;100.00
34506;BME280;20748;42.632;23.198;2024-02-26T02:41:30;91487.56;;;6.24;100.00
34506;BME280;20748;42.632;23.198;2024-02-26T02:44:04;91487.53;;;6.10;100.00
34506;BME280;20748;42.632;23.198;2024-02-26T02:46:38;91483.41;;;6.09;100.00
34506;BME280;20748;42.632;23.198;2024-02-26T02:49:12;91490.53;;;6.17;100.00
34506;BME280;20748;42.632;23.198;2024-02-26T02:51:47;91493.31;;;6.21;100.00
34506;BME280;20748;42.632;23.198;2024-02-26T02:54:21;91497.09;;;6.28;100.00
34506;BME280;20748;42.632;23.198;2024-02-26T02:56:55;91490.50;;;6.36;100.00
34506;BME280;20748;42.632;23.198;2024-02-26T02:59:28;91492.50;;;6.39;100.00
34506;BME280;20748;42.632;23.198;2024-02-26T03:02:02;91491.25;;;6.37;100.00
34506;BME280;20748;42.632;23.198;2024-02-26T03:04:36;91494.53;;;6.42;100.00
34506;BME280;20748;42.632;23.198;2024-02-26T03:07:11;91483.97;;;6.39;100.00
34506;BME280;20748;42.632;23.198;2024-02-26T03:09:45;91492.31;;;6.36;100.00
34506;BME280;20748;42.632;23.198;2024-02-26T03:12:19;91501.06;;;6.40;100.00
34506;BME280;20748;42.632;23.198;2024-02-26T03:14:52;91504.13;;;6.42;100.00
34506;BME280;20748;42.632;23.198;2024-02-26T03:17:26;91501.06;;;6.40;100.00
34506;BME280;20748;42.632;23.198;2024-02-26T03:20:00;91498.94;;;6.42;100.00
34506;BME280;20748;42.632;23.198;2024-02-26T03:22:38;91496.63;;;6.40;100.00
34506;BME280;20748;42.632;23.198;2024-02-26T03:25:12;91471.09;;;6.34;100.00
34506;BME280;20748;42.632;23.198;2024-02-26T03:27:45;91491.75;;;6.39;100.00
34506;BME280;20748;42.632;23.198;2024-02-26T03:30:19;91479.81;;;6.38;100.00
34506;BME280;20748;42.632;23.198;2024-02-26T03:32:53;91479.53;;;6.39;100.00
34506;BME280;20748;42.632;23.198;2024-02-26T03:35:27;91478.13;;;6.47;100.00
34506;BME280;20748;42.632;23.198;2024-02-26T03:38:02;91475.13;;;6.40;100.00
34506;BME280;20748;42.632;23.198;2024-02-26T03:40:35;91485.19;;;6.27;100.00
34506;BME280;20748;42.632;23.198;2024-02-26T03:43:09;91474.94;;;6.36;100.00
34506;BME280;20748;42.632;23.198;2024-02-26T03:45:43;91476.94;;;6.39;100.00
34506;BME280;20748;42.632;23.198;2024-02-26T03:48:16;91473.69;;;6.34;100.00
34506;BME280;20748;42.632;23.198;2024-02-26T03:50:50;91466.16;;;6.18;100.00
34506;BME280;20748;42.632;23.198;2024-02-26T03:53:25;91463.41;;;6.28;100.00
34506;BME280;20748;42.632;23.198;2024-02-26T03:56:03;91462.41;;;6.24;100.00
34506;BME280;20748;42.632;23.198;2024-02-26T03:58:36;91461.38;;;6.25;100.00
34506;BME280;20748;42.632;23.198;2024-02-26T04:01:10;91464.63;;;6.17;100.00
34506;BME280;20748;42.632;23.198;2024-02-26T04:03:44;91458.03;;;6.25;100.00
34506;BME280;20748;42.632;23.198;2024-02-26T04:06:18;91464.94;;;6.29;100.00
34506;BME280;20748;42.632;23.198;2024-02-26T04:08:54;91455.44;;;6.25;100.00
34506;BME280;20748;42.632;23.198;2024-02-26T04:11:28;91460.09;;;6.23;100.00
34506;BME280;20748;42.632;23.198;2024-02-26T04:14:02;91458.31;;;6.23;100.00
34506;BME280;20748;42.632;23.198;2024-02-26T04:16:36;91455.78;;;6.18;100.00
34506;BME280;20748;42.632;23.198;2024-02-26T04:19:09;91447.75;;;6.20;100.00
34506;BME280;20748;42.632;23.198;2024-02-26T04:21:43;91444.75;;;6.12;100.00
34506;BME280;20748;42.632;23.198;2024-02-26T04:24:18;91450.41;;;6.14;100.00
34506;BME280;20748;42.632;23.198;2024-02-26T04:26:52;91451.38;;;6.18;100.00
34506;BME280;20748;42.632;23.198;2024-02-26T04:29:26;91442.28;;;6.21;100.00
34506;BME280;20748;42.632;23.198;2024-02-26T04:31:59;91444.56;;;6.23;100.00
34506;BME280;20748;42.632;23.198;2024-02-26T04:34:33;91446.88;;;6.24;100.00
34506;BME280;20748;42.632;23.198;2024-02-26T04:37:07;91457.25;;;6.24;100.00
34506;BME280;20748;42.632;23.198;2024-02-26T04:39:42;91456.50;;;6.24;100.00
34506;BME280;20748;42.632;23.198;2024-02-26T04:42:17;91457.72;;;6.26;100.00
34506;BME280;20748;42.632;23.198;2024-02-26T04:44:51;91452.66;;;6.21;100.00
34506;BME280;20748;42.632;23.198;2024-02-26T04:47:25;91452.34;;;6.23;100.00
34506;BME280;20748;42.632;23.198;2024-02-26T04:49:58;91448.41;;;6.25;100.00
34506;BME280;20748;42.632;23.198;2024-02-26T04:52:32;91454.38;;;6.26;100.00
34506;BME280;20748;42.632;23.198;2024-02-26T04:55:07;91457.72;;;6.26;100.00
34506;BME280;20748;42.632;23.198;2024-02-26T04:57:41;91456.97;;;6.26;100.00
34506;BME280;20748;42.632;23.198;2024-02-26T05:00:15;91452.44;;;6.31;100.00
34506;BME280;20748;42.632;23.198;2024-02-26T05:02:49;91449.59;;;6.33;100.00
34506;BME280;20748;42.632;23.198;2024-02-26T05:05:23;91454.22;;;6.36;100.00
34506;BME280;20748;42.632;23.198;2024-02-26T05:07:57;91458.69;;;6.30;100.00
34506;BME280;20748;42.632;23.198;2024-02-26T05:10:32;91460.63;;;6.25;100.00
34506;BME280;20748;42.632;23.198;2024-02-26T05:13:05;91472.91;;;6.33;100.00
34506;BME280;20748;42.632;23.198;2024-02-26T05:15:39;91469.25;;;6.34;100.00
34506;BME280;20748;42.632;23.198;2024-02-26T05:18:13;91475.97;;;6.35;100.00
34506;BME280;20748;42.632;23.198;2024-02-26T05:20:46;91485.31;;;6.36;100.00
34506;BME280;20748;42.632;23.198;2024-02-26T05:23:20;91479.63;;;6.34;100.00
34506;BME280;20748;42.632;23.198;2024-02-26T05:25:56;91488.25;;;6.29;100.00
34506;BME280;20748;42.632;23.198;2024-02-26T05:28:30;91493.09;;;6.36;100.00
34506;BME280;20748;42.632;23.198;2024-02-26T05:31:04;91488.66;;;6.37;100.00
34506;BME280;20748;42.632;23.198;2024-02-26T05:33:37;91494.88;;;6.36;100.00
34506;BME280;20748;42.632;23.198;2024-02-26T05:36:18;91492.16;;;6.46;100.00
34506;BME280;20748;42.632;23.198;2024-02-26T05:38:51;91484.75;;;6.53;100.00
34506;BME280;20748;42.632;23.198;2024-02-26T05:41:27;91490.72;;;6.54;100.00
34506;BME280;20748;42.632;23.198;2024-02-26T05:44:00;91488.59;;;6.56;100.00
34506;BME280;20748;42.632;23.198;2024-02-26T05:46:34;91497.91;;;6.57;100.00
34506;BME280;20748;42.632;23.198;2024-02-26T05:49:08;91504.16;;;6.56;100.00
34506;BME280;20748;42.632;23.198;2024-02-26T05:51:42;91498.31;;;6.50;100.00
34506;BME280;20748;42.632;23.198;2024-02-26T05:54:15;91497.16;;;6.56;100.00
34506;BME280;20748;42.632;23.198;2024-02-26T05:56:50;91504.63;;;6.58;100.00
34506;BME280;20748;42.632;23.198;2024-02-26T05:59:24;91502.75;;;6.64;100.00
34506;BME280;20748;42.632;23.198;2024-02-26T06:01:58;91497.56;;;6.64;100.00
34506;BME280;20748;42.632;23.198;2024-02-26T06:04:32;91499.88;;;6.65;100.00
34506;BME280;20748;42.632;23.198;2024-02-26T06:07:05;91502.94;;;6.67;100.00
34506;BME280;20748;42.632;23.198;2024-02-26T06:09:39;91504.66;;;6.72;100.00
34506;BME280;20748;42.632;23.198;2024-02-26T06:12:14;91501.47;;;6.61;100.00
34506;BME280;20748;42.632;23.198;2024-02-26T06:14:48;91506.50;;;6.71;100.00
34506;BME280;20748;42.632;23.198;2024-02-26T06:17:22;91499.47;;;6.72;100.00
34506;BME280;20748;42.632;23.198;2024-02-26T06:19:55;91499.28;;;6.68;100.00
34506;BME280;20748;42.632;23.198;2024-02-26T06:22:29;91504.47;;;6.68;100.00
34506;BME280;20748;42.632;23.198;2024-02-26T06:25:03;91508.78;;;6.73;100.00
34506;BME280;20748;42.632;23.198;2024-02-26T06:27:38;91508.22;;;6.76;100.00
34506;BME280;20748;42.632;23.198;2024-02-26T06:30:13;91507.19;;;6.77;100.00
34506;BME280;20748;42.632;23.198;2024-02-26T06:32:46;91508.81;;;6.87;100.00
34506;BME280;20748;42.632;23.198;2024-02-26T06:35:20;91507.75;;;6.88;100.00
34506;BME280;20748;42.632;23.198;2024-02-26T06:37:54;91508.91;;;6.96;100.00
34506;BME280;20748;42.632;23.198;2024-02-26T06:40:28;91513.47;;;7.04;100.00
34506;BME280;20748;42.632;23.198;2024-02-26T06:43:03;91510.19;;;6.98;100.00
34506;BME280;20748;42.632;23.198;2024-02-26T06:45:37;91503.34;;;6.89;100.00
34506;BME280;20748;42.632;23.198;2024-02-26T06:48:10;91510.84;;;6.90;100.00
34506;BME280;20748;42.632;23.198;2024-02-26T06:50:44;91509.41;;;6.84;100.00
34506;BME280;20748;42.632;23.198;2024-02-26T06:53:18;91509.59;;;6.88;100.00
34506;BME280;20748;42.632;23.198;2024-02-26T06:55:51;91516.22;;;6.94;100.00
34506;BME280;20748;42.632;23.198;2024-02-26T06:58:26;91508.84;;;7.01;100.00
34506;BME280;20748;42.632;23.198;2024-02-26T07:01:00;91516.25;;;7.08;100.00
34506;BME280;20748;42.632;23.198;2024-02-26T07:03:34;91518.44;;;7.15;100.00
34506;BME280;20748;42.632;23.198;2024-02-26T07:06:08;91515.56;;;7.02;100.00
34506;BME280;20748;42.632;23.198;2024-02-26T07:08:42;91523.06;;;7.18;100.00
34506;BME280;20748;42.632;23.198;2024-02-26T07:11:16;91526.22;;;7.15;100.00
34506;BME280;20748;42.632;23.198;2024-02-26T07:13:52;91532.66;;;7.17;100.00
34506;BME280;20748;42.632;23.198;2024-02-26T07:16:26;91543.72;;;7.23;100.00
34506;BME280;20748;42.632;23.198;2024-02-26T07:19:00;91532.28;;;7.24;100.00
34506;BME280;20748;42.632;23.198;2024-02-26T07:21:35;91530.47;;;7.10;100.00
34506;BME280;20748;42.632;23.198;2024-02-26T07:24:08;91542.38;;;7.11;100.00
34506;BME280;20748;42.632;23.198;2024-02-26T07:26:42;91546.88;;;7.20;100.00
34506;BME280;20748;42.632;23.198;2024-02-26T07:29:17;91548.13;;;7.08;100.00
34506;BME280;20748;42.632;23.198;2024-02-26T07:31:51;91542.19;;;7.08;100.00
34506;BME280;20748;42.632;23.198;2024-02-26T07:34:24;91543.25;;;7.07;100.00
34506;BME280;20748;42.632;23.198;2024-02-26T07:37:01;91536.31;;;7.16;100.00
34506;BME280;20748;42.632;23.198;2024-02-26T07:39:35;91547.69;;;7.34;100.00
34506;BME280;20748;42.632;23.198;2024-02-26T07:42:09;91552.97;;;7.43;100.00
34506;BME280;20748;42.632;23.198;2024-02-26T07:44:44;91552.28;;;7.51;100.00
34506;BME280;20748;42.632;23.198;2024-02-26T07:47:18;91549.50;;;7.62;100.00
34506;BME280;20748;42.632;23.198;2024-02-26T07:49:51;91548.31;;;7.68;100.00
34506;BME280;20748;42.632;23.198;2024-02-26T07:52:32;91540.44;;;7.73;100.00
34506;BME280;20748;42.632;23.198;2024-02-26T07:55:06;91539.63;;;7.87;100.00
34506;BME280;20748;42.632;23.198;2024-02-26T07:57:41;91538.06;;;8.00;100.00
34506;BME280;20748;42.632;23.198;2024-02-26T08:00:17;91538.22;;;8.17;100.00
34506;BME280;20748;42.632;23.198;2024-02-26T08:02:51;91541.19;;;8.25;100.00
34506;BME280;20748;42.632;23.198;2024-02-26T08:05:25;91533.09;;;8.26;100.00
34506;BME280;20748;42.632;23.198;2024-02-26T08:07:59;91533.78;;;8.41;100.00
34506;BME280;20748;42.632;23.198;2024-02-26T08:10:33;91530.19;;;8.51;100.00
34506;BME280;20748;42.632;23.198;2024-02-26T08:13:06;91533.34;;;8.62;100.00
34506;BME280;20748;42.632;23.198;2024-02-26T08:15:41;91528.38;;;8.74;100.00
34506;BME280;20748;42.632;23.198;2024-02-26T11:41:25;91455.31;;;12.63;74.39
34506;BME280;20748;42.632;23.198;2024-02-26T11:44:00;91452.75;;;12.88;73.30
34506;BME280;20748;42.632;23.198;2024-02-26T11:46:39;91460.19;;;12.98;71.96
34506;BME280;20748;42.632;23.198;2024-02-26T11:49:31;91451.47;;;13.19;70.47
34506;BME280;20748;42.632;23.198;2024-02-26T11:52:07;91452.00;;;13.37;70.31
34506;BME280;20748;42.632;23.198;2024-02-26T11:54:46;91451.59;;;13.48;69.03
34506;BME280;20748;42.632;23.198;2024-02-26T11:57:25;91452.81;;;13.50;69.10
34506;BME280;20748;42.632;23.198;2024-02-26T12:00:11;91449.75;;;13.61;68.73
34506;BME280;20748;42.632;23.198;2024-02-26T12:02:46;91449.94;;;13.68;67.41
34506;BME280;20748;42.632;23.198;2024-02-26T12:05:21;91457.78;;;13.80;67.44
34506;BME280;20748;42.632;23.198;2024-02-26T12:08:00;91457.19;;;14.00;67.67
34506;BME280;20748;42.632;23.198;2024-02-26T12:10:39;91455.19;;;14.21;67.56
34506;BME280;20748;42.632;23.198;2024-02-26T12:13:16;91454.72;;;14.19;67.07
34506;BME280;20748;42.632;23.198;2024-02-26T12:15:55;91454.34;;;14.33;67.91
34506;BME280;20748;42.632;23.198;2024-02-26T12:18:30;91448.88;;;14.39;67.45
34506;BME280;20748;42.632;23.198;2024-02-26T12:21:04;91456.31;;;14.36;66.97
34506;BME280;20748;42.632;23.198;2024-02-26T12:23:38;91458.50;;;14.34;66.49
34506;BME280;20748;42.632;23.198;2024-02-26T12:26:11;91463.19;;;14.41;67.03
34506;BME280;20748;42.632;23.198;2024-02-26T12:28:48;91468.66;;;14.07;67.26
34506;BME280;20748;42.632;23.198;2024-02-26T12:31:21;91467.75;;;14.16;66.80
34506;BME280;20748;42.632;23.198;2024-02-26T12:33:55;91468.63;;;14.20;66.20
34506;BME280;20748;42.632;23.198;2024-02-26T12:36:29;91464.13;;;14.20;65.79
34506;BME280;20748;42.632;23.198;2024-02-26T12:39:03;91472.31;;;14.31;64.55
34506;BME280;20748;42.632;23.198;2024-02-26T12:41:38;91464.56;;;14.22;64.65
34506;BME280;20748;42.632;23.198;2024-02-26T12:44:14;91473.19;;;14.23;65.01
34506;BME280;20748;42.632;23.198;2024-02-26T12:46:47;91461.94;;;14.22;64.36
34506;BME280;20748;42.632;23.198;2024-02-26T12:49:21;91469.72;;;14.19;64.91
34506;BME280;20748;42.632;23.198;2024-02-26T13:01:48;91462.50;;;13.75;64.45
34506;BME280;20748;42.632;23.198;2024-02-26T13:04:23;91453.47;;;13.60;64.50
34506;BME280;20748;42.632;23.198;2024-02-26T13:06:57;91459.91;;;13.62;64.81
34506;BME280;20748;42.632;23.198;2024-02-26T13:09:35;91453.22;;;13.65;64.29
34506;BME280;20748;42.632;23.198;2024-02-26T13:12:09;91457.47;;;13.69;64.03
34506;BME280;20748;42.632;23.198;2024-02-26T13:14:43;91457.47;;;13.69;64.46
34506;BME280;20748;42.632;23.198;2024-02-26T13:17:22;91460.44;;;13.68;64.07
34506;BME280;20748;42.632;23.198;2024-02-26T13:19:57;91473.56;;;13.55;64.90
34506;BME280;20748;42.632;23.198;2024-02-26T13:22:31;91472.78;;;13.55;63.42
34506;BME280;20748;42.632;23.198;2024-02-26T13:25:07;91474.38;;;13.35;63.52
34506;BME280;20748;42.632;23.198;2024-02-26T13:27:40;91475.19;;;13.48;63.71
34506;BME280;20748;42.632;23.198;2024-02-26T13:30:14;91472.88;;;13.59;62.77
34506;BME280;20748;42.632;23.198;2024-02-26T13:32:49;91478.69;;;13.52;63.41
34506;BME280;20748;42.632;23.198;2024-02-26T13:35:23;91471.78;;;13.47;63.09
34506;BME280;20748;42.632;23.198;2024-02-26T13:37:56;91478.59;;;13.48;63.73
34506;BME280;20748;42.632;23.198;2024-02-26T13:40:30;91476.28;;;13.59;63.59
34506;BME280;20748;42.632;23.198;2024-02-26T13:43:04;91475.06;;;13.56;63.77
34506;BME280;20748;42.632;23.198;2024-02-26T13:45:39;91481.50;;;13.72;62.84
34506;BME280;20748;42.632;23.198;2024-02-26T13:48:14;91481.81;;;13.70;60.94
34506;BME280;20748;42.632;23.198;2024-02-26T13:50:48;91479.31;;;13.74;60.72
34506;BME280;20748;42.632;23.198;2024-02-26T13:53:22;91483.13;;;13.76;61.73
34506;BME280;20748;42.632;23.198;2024-02-26T13:55:56;91479.97;;;13.71;60.21
34506;BME280;20748;42.632;23.198;2024-02-26T13:58:31;91476.25;;;13.72;61.88
34506;BME280;20748;42.632;23.198;2024-02-26T14:01:04;91484.91;;;13.72;61.46
34506;BME280;20748;42.632;23.198;2024-02-26T14:03:39;91481.84;;;13.58;61.85
34506;BME280;20748;42.632;23.198;2024-02-26T14:06:13;91485.03;;;13.51;61.99
34506;BME280;20748;42.632;23.198;2024-02-26T14:08:47;91487.19;;;13.61;62.74
34506;BME280;20748;42.632;23.198;2024-02-26T14:11:21;91480.53;;;13.64;61.68
34506;BME280;20748;42.632;23.198;2024-02-26T14:13:55;91483.81;;;13.61;61.62
34506;BME280;20748;42.632;23.198;2024-02-26T14:16:28;91490.25;;;13.63;62.18
34506;BME280;20748;42.632;23.198;2024-02-26T14:19:05;91494.28;;;13.73;62.23
34506;BME280;20748;42.632;23.198;2024-02-26T14:21:39;91495.59;;;13.79;62.05
34506;BME280;20748;42.632;23.198;2024-02-26T14:24:12;91488.25;;;13.85;61.91
34506;BME280;20748;42.632;23.198;2024-02-26T14:26:46;91489.03;;;13.86;62.35
34506;BME280;20748;42.632;23.198;2024-02-26T14:29:20;91489.44;;;13.88;61.94
34506;BME280;20748;42.632;23.198;2024-02-26T14:31:53;91488.91;;;13.94;61.96
34506;BME280;20748;42.632;23.198;2024-02-26T14:34:30;91495.66;;;13.95;61.40
34506;BME280;20748;42.632;23.198;2024-02-26T14:37:05;91497.09;;;13.93;61.15
34506;BME280;20748;42.632;23.198;2024-02-26T14:39:38;91500.28;;;13.86;62.42
34506;BME280;20748;42.632;23.198;2024-02-26T14:42:12;91495.38;;;13.85;61.88
34506;BME280;20748;42.632;23.198;2024-02-26T14:44:49;91499.31;;;13.78;62.26
34506;BME280;20748;42.632;23.198;2024-02-26T14:47:23;91496.91;;;13.73;62.66
34506;BME280;20748;42.632;23.198;2024-02-26T14:49:58;91502.28;;;13.52;63.17
34506;BME280;20748;42.632;23.198;2024-02-26T14:52:32;91501.84;;;13.62;62.68
34506;BME280;20748;42.632;23.198;2024-02-26T14:55:06;91502.16;;;13.73;62.37
34506;BME280;20748;42.632;23.198;2024-02-26T14:57:40;91505.66;;;13.77;62.19
34506;BME280;20748;42.632;23.198;2024-02-26T15:00:14;91512.63;;;13.86;61.88
34506;BME280;20748;42.632;23.198;2024-02-26T15:02:48;91516.34;;;13.85;61.76
34506;BME280;20748;42.632;23.198;2024-02-26T15:05:23;91507.59;;;13.80;62.11
34506;BME280;20748;42.632;23.198;2024-02-26T15:07:56;91520.06;;;13.83;62.43
34506;BME280;20748;42.632;23.198;2024-02-26T15:10:31;91509.91;;;13.82;62.24
34506;BME280;20748;42.632;23.198;2024-02-26T15:13:05;91509.91;;;13.82;61.85
34506;BME280;20748;42.632;23.198;2024-02-26T15:15:39;91512.19;;;13.83;62.36
34506;BME280;20748;42.632;23.198;2024-02-26T15:18:13;91512.94;;;13.84;62.80
34506;BME280;20748;42.632;23.198;2024-02-26T15:20:50;91518.88;;;13.81;62.86
34506;BME280;20748;42.632;23.198;2024-02-26T15:23:24;91516.56;;;13.79;62.82
34506;BME280;20748;42.632;23.198;2024-02-26T15:26:00;91520.59;;;13.77;62.75
34506;BME280;20748;42.632;23.198;2024-02-26T15:28:34;91528.69;;;13.72;63.46
34506;BME280;20748;42.632;23.198;2024-02-26T15:31:08;91526.38;;;13.70;64.13
34506;BME280;20748;42.632;23.198;2024-02-26T15:33:46;91530.00;;;13.65;64.34
34506;BME280;20748;42.632;23.198;2024-02-26T15:36:21;91528.81;;;13.63;64.78
34506;BME280;20748;42.632;23.198;2024-02-26T15:38:55;91533.81;;;13.55;65.17
34506;BME280;20748;42.632;23.198;2024-02-26T15:41:29;91526.50;;;13.49;65.77
34506;BME280;20748;42.632;23.198;2024-02-26T15:44:03;91528.44;;;13.39;66.28
34506;BME280;20748;42.632;23.198;2024-02-26T15:46:39;91534.75;;;13.38;66.37
34506;BME280;20748;42.632;23.198;2024-02-26T15:49:13;91540.13;;;13.29;66.52
34506;BME280;20748;42.632;23.198;2024-02-26T15:51:49;91538.47;;;13.25;66.59
34506;BME280;20748;42.632;23.198;2024-02-26T15:54:23;91536.41;;;13.18;67.21
34506;BME280;20748;42.632;23.198;2024-02-26T15:56:56;91543.13;;;13.07;67.61
34506;BME280;20748;42.632;23.198;2024-02-26T15:59:30;91542.13;;;12.99;68.11
34506;BME280;20748;42.632;23.198;2024-02-26T16:02:04;91527.81;;;12.84;68.02
34506;BME280;20748;42.632;23.198;2024-02-26T16:04:38;91556.28;;;12.85;68.15
34506;BME280;20748;42.632;23.198;2024-02-26T16:07:19;91553.41;;;12.78;68.28
34506;BME280;20748;42.632;23.198;2024-02-26T16:09:55;91564.59;;;12.66;68.55
34506;BME280;20748;42.632;23.198;2024-02-26T16:12:34;91556.56;;;12.50;68.93
34506;BME280;20748;42.632;23.198;2024-02-26T16:15:10;91563.84;;;12.44;67.92
34506;BME280;20748;42.632;23.198;2024-02-26T16:17:44;91569.97;;;12.27;68.11
34506;BME280;20748;42.632;23.198;2024-02-26T16:20:21;91571.19;;;12.08;68.33
34506;BME280;20748;42.632;23.198;2024-02-26T16:22:58;91569.50;;;11.95;68.44
34506;BME280;20748;42.632;23.198;2024-02-26T16:25:37;91573.84;;;11.91;68.61
34506;BME280;20748;42.632;23.198;2024-02-26T16:28:11;91575.44;;;11.83;68.88
34506;BME280;20748;42.632;23.198;2024-02-26T16:30:44;91578.84;;;11.75;69.13
34506;BME280;20748;42.632;23.198;2024-02-26T16:33:18;91574.56;;;11.70;69.62
34506;BME280;20748;42.632;23.198;2024-02-26T16:35:52;91588.59;;;11.65;69.68
34506;BME280;20748;42.632;23.198;2024-02-26T16:38:27;91593.66;;;11.62;69.33
34506;BME280;20748;42.632;23.198;2024-02-26T16:41:01;91590.16;;;11.58;69.03
34506;BME280;20748;42.632;23.198;2024-02-26T16:43:35;91595.53;;;11.52;69.47
34506;BME280;20748;42.632;23.198;2024-02-26T16:46:09;91594.66;;;11.39;70.20
34506;BME280;20748;42.632;23.198;2024-02-26T16:48:44;91596.03;;;11.37;70.21
34506;BME280;20748;42.632;23.198;2024-02-26T16:51:19;91599.00;;;11.35;70.59
34506;BME280;20748;42.632;23.198;2024-02-26T16:53:54;91600.84;;;11.26;71.33
34506;BME280;20748;42.632;23.198;2024-02-26T16:56:28;91602.09;;;11.20;72.18
34506;BME280;20748;42.632;23.198;2024-02-26T16:59:02;91599.19;;;11.21;72.90
34506;BME280;20748;42.632;23.198;2024-02-26T17:01:36;91596.09;;;11.19;72.73